Time,TemperatureF,DewpointF,PressureIn,WindDirection,WindDirectionDegrees,WindSpeedMPH,WindSpeedGustMPH,Humidity,HourlyPrecipIn,Conditions,Clouds,dailyrainin,SoftwareType,DateUTC
2013-04-18 00:03:00,76.6,71.0,29.63,SW,214,20.0,22.0,82,0.00,,,0.00,weatherlink.com 1.10,2013-04-18 05:03:00,
2013-04-18 00:18:00,76.5,71.0,29.63,South,191,7.0,24.0,82,0.00,,,0.00,weatherlink.com 1.10,2013-04-18 05:18:00,
2013-04-18 00:33:00,76.4,71.0,29.62,South,176,12.0,28.0,82,0.00,,,0.00,weatherlink.com 1.10,2013-04-18 05:33:00,
2013-04-18 00:48:00,76.1,71.0,29.63,SSW,193,12.0,24.0,84,0.00,,,0.00,weatherlink.com 1.10,2013-04-18 05:48:00,
2013-04-18 01:03:00,74.4,71.0,29.62,SSE,163,11.0,25.0,89,0.00,,,0.00,weatherlink.com 1.10,2013-04-18 06:03:00,
2013-04-18 01:18:00,73.7,71.0,29.62,South,181,16.0,22.0,91,0.00,,,0.00,weatherlink.com 1.10,2013-04-18 06:18:00,
2013-04-18 01:33:00,73.5,71.0,29.62,SE,142,10.0,18.0,92,0.00,,,0.00,weatherlink.com 1.10,2013-04-18 06:33:00,
2013-04-18 01:48:00,73.9,71.0,29.62,SSE,162,7.0,21.0,90,0.00,,,0.00,weatherlink.com 1.10,2013-04-18 06:48:00,
2013-04-18 02:03:00,73.9,71.0,29.61,South,191,9.0,19.0,90,0.00,,,0.00,weatherlink.com 1.10,2013-04-18 07:03:00,
2013-04-18 02:18:00,73.8,71.0,29.61,South,188,11.0,22.0,90,0.00,,,0.00,weatherlink.com 1.10,2013-04-18 07:18:00,
2013-04-18 02:33:00,73.7,71.0,29.59,SE,139,8.0,20.0,90,0.00,,,0.00,weatherlink.com 1.10,2013-04-18 07:33:00,
2013-04-18 02:48:00,73.6,70.0,29.57,SE,124,13.0,25.0,89,0.00,,,0.00,weatherlink.com 1.10,2013-04-18 07:48:00,
2013-04-18 03:03:00,73.6,70.0,29.56,SSE,164,29.0,29.0,89,0.00,,,0.00,weatherlink.com 1.10,2013-04-18 08:03:00,
2013-04-18 03:18:00,73.4,70.0,29.56,SSW,208,16.0,24.0,89,0.00,,,0.00,weatherlink.com 1.10,2013-04-18 08:18:00,
2013-04-18 03:33:00,73.7,70.0,29.55,South,184,13.0,25.0,87,0.00,,,0.00,weatherlink.com 1.10,2013-04-18 08:33:00,
2013-04-18 03:49:00,74.4,70.0,29.54,SE,142,19.0,31.0,85,0.00,,,0.00,weatherlink.com 1.10,2013-04-18 08:49:00,
2013-04-18 04:04:00,74.3,69.0,29.54,SSE,154,12.0,25.0,84,0.00,,,0.00,weatherlink.com 1.10,2013-04-18 09:04:00,
2013-04-18 04:19:00,74.5,69.0,29.57,SSW,201,15.0,24.0,83,0.00,,,0.00,weatherlink.com 1.10,2013-04-18 09:19:00,
2013-04-18 04:34:00,62.4,55.0,29.67,NNW,333,17.0,30.0,78,0.03,,,0.03,weatherlink.com 1.10,2013-04-18 09:34:00,
2013-04-18 04:49:00,54.3,52.0,29.67,NW,323,15.0,26.0,93,0.43,,,0.43,weatherlink.com 1.10,2013-04-18 09:49:00,
2013-04-18 05:04:00,53.1,52.0,29.68,NW,325,13.0,16.0,95,0.71,,,0.71,weatherlink.com 1.10,2013-04-18 10:04:00,
2013-04-18 05:19:00,51.8,51.0,29.73,NW,315,13.0,23.0,95,0.77,,,0.77,weatherlink.com 1.10,2013-04-18 10:19:00,
2013-04-18 05:34:00,50.8,50.0,29.75,NW,315,12.0,17.0,95,0.90,,,0.96,weatherlink.com 1.10,2013-04-18 10:34:00,
2013-04-18 05:49:00,50.2,49.0,29.78,WNW,300,7.0,17.0,96,0.59,,,1.04,weatherlink.com 1.10,2013-04-18 10:49:00,
2013-04-18 06:04:00,49.7,49.0,29.78,NW,313,9.0,17.0,96,0.39,,,1.10,weatherlink.com 1.10,2013-04-18 11:04:00,
2013-04-18 06:19:00,48.9,48.0,29.78,NNW,345,4.0,20.0,95,0.35,,,1.12,weatherlink.com 1.10,2013-04-18 11:19:00,
2013-04-18 06:34:00,47.9,46.0,29.78,NNW,333,6.0,22.0,94,0.17,,,1.14,weatherlink.com 1.10,2013-04-18 11:34:00,
2013-04-18 06:49:00,47.4,46.0,29.79,NW,316,10.0,21.0,94,0.11,,,1.15,weatherlink.com 1.10,2013-04-18 11:49:00,
2013-04-18 07:04:00,47.2,46.0,29.85,North,359,17.0,23.0,94,0.05,,,1.15,weatherlink.com 1.10,2013-04-18 12:04:00,
2013-04-18 07:19:00,47.2,46.0,29.90,NNW,330,11.0,17.0,95,0.05,,,1.17,weatherlink.com 1.10,2013-04-18 12:19:00,
2013-04-18 07:34:00,46.9,45.0,29.85,NNW,329,11.0,23.0,94,0.08,,,1.22,weatherlink.com 1.10,2013-04-18 12:34:00,
2013-04-18 07:49:00,46.4,45.0,29.86,NNW,337,8.0,22.0,95,0.09,,,1.24,weatherlink.com 1.10,2013-04-18 12:49:00,
2013-04-18 08:19:00,45.8,44.0,29.88,NW,304,16.0,19.0,94,0.07,,,1.24,weatherlink.com 1.10,2013-04-18 13:19:00,
2013-04-18 08:34:00,45.7,44.0,29.87,NW,311,16.0,21.0,93,0.02,,,1.24,weatherlink.com 1.10,2013-04-18 13:34:00,
2013-04-18 08:49:00,45.7,44.0,29.91,NNE,25,7.0,15.0,92,0.00,,,1.24,weatherlink.com 1.10,2013-04-18 13:49:00,
2013-04-18 09:04:00,45.8,43.0,29.89,NNW,340,7.0,20.0,89,0.00,,,1.24,weatherlink.com 1.10,2013-04-18 14:04:00,
2013-04-18 09:20:00,46.1,43.0,29.90,North,359,7.0,18.0,89,0.00,,,1.24,weatherlink.com 1.10,2013-04-18 14:20:00,
2013-04-18 09:35:00,46.3,43.0,29.89,NNE,13,5.0,19.0,89,0.00,,,1.24,weatherlink.com 1.10,2013-04-18 14:35:00,
2013-04-18 09:50:00,46.7,42.0,29.91,North,5,8.0,21.0,83,0.00,,,1.24,weatherlink.com 1.10,2013-04-18 14:50:00,
2013-04-18 10:05:00,46.5,41.0,29.94,NW,308,11.0,19.0,81,0.00,,,1.24,weatherlink.com 1.10,2013-04-18 15:05:00,
2013-04-18 10:20:00,46.0,41.0,29.95,NW,309,12.0,21.0,81,0.00,,,1.24,weatherlink.com 1.10,2013-04-18 15:20:00,
2013-04-18 10:35:00,45.8,40.0,29.95,NW,307,13.0,20.0,81,0.00,,,1.24,weatherlink.com 1.10,2013-04-18 15:35:00,
2013-04-18 10:50:00,46.2,40.0,29.97,NW,323,11.0,17.0,79,0.00,,,1.24,weatherlink.com 1.10,2013-04-18 15:50:00,
2013-04-18 11:05:00,45.9,40.0,29.98,NNW,340,7.0,17.0,79,0.00,,,1.24,weatherlink.com 1.10,2013-04-18 16:05:00,
2013-04-18 11:20:00,46.4,40.0,29.98,WNW,295,10.0,14.0,78,0.00,,,1.24,weatherlink.com 1.10,2013-04-18 16:20:00,
2013-04-18 11:35:00,46.8,40.0,29.98,NW,309,4.0,21.0,76,0.00,,,1.24,weatherlink.com 1.10,2013-04-18 16:35:00,
2013-04-18 11:50:00,46.9,39.0,29.98,NNW,338,11.0,20.0,75,0.00,,,1.24,weatherlink.com 1.10,2013-04-18 16:50:00,
2013-04-18 12:05:00,47.2,39.0,29.99,NNE,33,12.0,17.0,73,0.00,,,1.24,weatherlink.com 1.10,2013-04-18 17:05:00,
2013-04-18 12:20:00,47.8,40.0,29.97,NE,55,11.0,17.0,73,0.00,,,1.24,weatherlink.com 1.10,2013-04-18 17:20:00,
2013-04-18 12:35:00,48.2,40.0,29.96,NNW,343,15.0,25.0,72,0.00,,,1.24,weatherlink.com 1.10,2013-04-18 17:35:00,
2013-04-18 12:50:00,48.6,39.0,29.96,WNW,295,10.0,23.0,69,0.00,,,1.24,weatherlink.com 1.10,2013-04-18 17:50:00,
2013-04-18 13:05:00,48.2,39.0,29.98,North,1,16.0,20.0,70,0.00,,,1.24,weatherlink.com 1.10,2013-04-18 18:05:00,
2013-04-18 13:20:00,48.5,39.0,29.99,NW,311,8.0,22.0,69,0.00,,,1.24,weatherlink.com 1.10,2013-04-18 18:20:00,
2013-04-18 13:35:00,49.4,38.0,29.99,North,357,8.0,19.0,66,0.00,,,1.24,weatherlink.com 1.10,2013-04-18 18:35:00,
2013-04-18 13:50:00,49.7,38.0,29.98,NW,316,6.0,19.0,65,0.00,,,1.24,weatherlink.com 1.10,2013-04-18 18:50:00,
2013-04-18 14:05:00,50.0,38.0,29.99,NW,305,12.0,16.0,64,0.00,,,1.24,weatherlink.com 1.10,2013-04-18 19:05:00,
2013-04-18 14:20:00,51.3,39.0,29.99,NW,315,6.0,18.0,62,0.00,,,1.24,weatherlink.com 1.10,2013-04-18 19:20:00,
2013-04-18 14:35:00,51.7,38.0,29.99,NW,325,11.0,20.0,60,0.00,,,1.24,weatherlink.com 1.10,2013-04-18 19:35:00,
2013-04-18 14:50:00,52.6,39.0,29.99,North,354,16.0,21.0,61,0.00,,,1.24,weatherlink.com 1.10,2013-04-18 19:50:00,
2013-04-18 15:05:00,53.1,38.0,29.99,NNW,330,13.0,21.0,56,0.00,,,1.24,weatherlink.com 1.10,2013-04-18 20:05:00,
2013-04-18 15:20:00,54.3,39.0,29.98,WNW,300,7.0,21.0,56,0.00,,,1.24,weatherlink.com 1.10,2013-04-18 20:20:00,
2013-04-18 15:35:00,55.6,39.0,29.98,NW,309,10.0,20.0,55,0.00,,,1.24,weatherlink.com 1.10,2013-04-18 20:35:00,
2013-04-18 15:50:00,55.7,39.0,29.98,WNW,302,10.0,20.0,53,0.00,,,1.24,weatherlink.com 1.10,2013-04-18 20:50:00,
2013-04-18 16:05:00,55.7,39.0,29.97,WNW,297,5.0,20.0,53,0.00,,,1.24,weatherlink.com 1.10,2013-04-18 21:05:00,
2013-04-18 16:20:00,54.9,38.0,29.98,North,349,12.0,16.0,53,0.00,,,1.24,weatherlink.com 1.10,2013-04-18 21:20:00,
2013-04-18 16:35:00,56.2,39.0,29.98,NW,323,14.0,15.0,53,0.00,,,1.24,weatherlink.com 1.10,2013-04-18 21:35:00,
2013-04-18 16:50:00,56.3,38.0,29.98,NW,326,14.0,19.0,50,0.00,,,1.24,weatherlink.com 1.10,2013-04-18 21:50:00,
2013-04-18 17:05:00,56.5,37.0,29.99,NW,325,12.0,18.0,49,0.00,,,1.24,weatherlink.com 1.10,2013-04-18 22:05:00,
2013-04-18 17:20:00,56.0,37.0,29.99,NNW,330,9.0,19.0,50,0.00,,,1.24,weatherlink.com 1.10,2013-04-18 22:20:00,
2013-04-18 17:35:00,56.1,38.0,29.99,NE,56,6.0,17.0,51,0.00,,,1.24,weatherlink.com 1.10,2013-04-18 22:35:00,
2013-04-18 17:50:00,57.0,37.0,30.00,NNW,337,16.0,18.0,47,0.00,,,1.24,weatherlink.com 1.10,2013-04-18 22:50:00,
2013-04-18 18:05:00,56.4,37.0,30.00,NE,54,8.0,18.0,49,0.00,,,1.24,weatherlink.com 1.10,2013-04-18 23:05:00,
2013-04-18 18:20:00,56.1,36.0,30.00,North,349,11.0,23.0,47,0.00,,,1.24,weatherlink.com 1.10,2013-04-18 23:20:00,
2013-04-18 18:35:00,55.9,36.0,30.01,NW,325,8.0,18.0,47,0.00,,,1.24,weatherlink.com 1.10,2013-04-18 23:35:00,
2013-04-18 18:50:00,56.1,36.0,30.02,North,8,16.0,16.0,47,0.00,,,1.24,weatherlink.com 1.10,2013-04-18 23:50:00,
2013-04-18 19:05:00,55.5,35.0,30.03,NNW,338,8.0,17.0,47,0.00,,,1.24,weatherlink.com 1.10,2013-04-19 00:05:00,
2013-04-18 19:20:00,54.6,35.0,30.04,NNW,332,12.0,23.0,48,0.00,,,1.24,weatherlink.com 1.10,2013-04-19 00:20:00,
2013-04-18 19:35:00,54.1,35.0,30.05,NW,316,14.0,16.0,49,0.00,,,1.24,weatherlink.com 1.10,2013-04-19 00:35:00,
2013-04-18 19:51:00,53.8,35.0,30.05,NNE,13,7.0,20.0,49,0.00,,,1.24,weatherlink.com 1.10,2013-04-19 00:51:00,
2013-04-18 20:06:00,53.2,35.0,30.07,NW,308,5.0,17.0,50,0.00,,,1.24,weatherlink.com 1.10,2013-04-19 01:06:00,
2013-04-18 20:21:00,52.7,34.0,30.08,North,354,13.0,19.0,50,0.00,,,1.24,weatherlink.com 1.10,2013-04-19 01:21:00,
2013-04-18 20:36:00,52.2,34.0,30.09,NNW,347,9.0,19.0,50,0.00,,,1.24,weatherlink.com 1.10,2013-04-19 01:36:00,
2013-04-18 20:51:00,51.8,34.0,30.11,NNW,345,6.0,21.0,51,0.00,,,1.24,weatherlink.com 1.10,2013-04-19 01:51:00,
2013-04-18 21:06:00,51.4,34.0,30.12,NW,314,9.0,13.0,52,0.00,,,1.24,weatherlink.com 1.10,2013-04-19 02:06:00,
2013-04-18 21:21:00,51.1,33.0,30.13,North,352,10.0,14.0,51,0.00,,,1.24,weatherlink.com 1.10,2013-04-19 02:21:00,
2013-04-18 21:36:00,50.8,34.0,30.14,NNW,330,6.0,14.0,52,0.00,,,1.24,weatherlink.com 1.10,2013-04-19 02:36:00,
2013-04-18 21:51:00,50.4,34.0,30.16,WNW,284,3.0,14.0,53,0.00,,,1.24,weatherlink.com 1.10,2013-04-19 02:51:00,
2013-04-18 22:06:00,49.9,34.0,30.16,North,353,3.0,10.0,55,0.00,,,1.24,weatherlink.com 1.10,2013-04-19 03:06:00,
2013-04-18 22:21:00,49.5,34.0,30.18,NNW,328,6.0,11.0,56,0.00,,,1.24,weatherlink.com 1.10,2013-04-19 03:21:00,
2013-04-18 22:36:00,49.1,34.0,30.18,NW,315,7.0,9.0,57,0.00,,,1.24,weatherlink.com 1.10,2013-04-19 03:36:00,
2013-04-18 22:51:00,48.6,35.0,30.18,North,360,4.0,7.0,59,0.00,,,1.24,weatherlink.com 1.10,2013-04-19 03:51:00,
2013-04-18 23:06:00,48.2,35.0,30.18,NW,323,4.0,8.0,60,0.00,,,1.24,weatherlink.com 1.10,2013-04-19 04:06:00,
2013-04-18 23:21:00,47.8,35.0,30.18,NW,323,5.0,7.0,62,0.00,,,1.24,weatherlink.com 1.10,2013-04-19 04:21:00,
2013-04-18 23:36:00,47.3,36.0,30.18,NW,319,2.0,5.0,64,0.00,,,1.24,weatherlink.com 1.10,2013-04-19 04:36:00,
2013-04-18 23:51:00,46.8,35.0,30.18,North,9,1.0,6.0,65,0.00,,,1.24,weatherlink.com 1.10,2013-04-19 04:51:00,